Altonah, Utah
Current Conditions -  °F | °C
As of 8:27 PM on Saturday 22 Nov 2014 (Local Time) from KVEL Reporting Station
Light Snow Light Snow  
Wind Chill:   Ceiling: 900
Heat Index:   Visibility: 2.5mi
Dew Point:   Wind: 0mph
Humidity: 100%   Direction: NA
Pressure: 29.79"   Gusts: NA
Location:  40.4°N, 110.29°W
Report Text: KVEL 230327Z AUTO 00000KT 2 1/2SM -SN BR SCT003 BKN009 OVC016 00/00 A2979 RMK AO2 UPB05E12SNE05B12 P0007 T00000000
Loading
Personal Weather Stations






























Interactive Weather Map New forecast layout! Learn more

10-Day Weather Forecast

Advertisements
Track Severe Weather on mobile